createdAt,value
2022-08-03T00:01:18.251Z,65.86
2022-08-03T00:03:51.664Z,65.63
2022-08-03T00:06:25.167Z,65.78
2022-08-03T00:08:58.724Z,66.00
2022-08-03T00:11:32.167Z,65.90
2022-08-03T00:14:05.908Z,65.98
2022-08-03T00:16:39.319Z,66.21
2022-08-03T00:19:12.789Z,66.35
2022-08-03T00:21:46.082Z,66.31
2022-08-03T00:24:19.683Z,66.28
2022-08-03T00:26:53.442Z,66.40
2022-08-03T00:29:26.564Z,66.66
2022-08-03T00:32:00.492Z,66.76
2022-08-03T00:34:36.727Z,66.67
2022-08-03T00:37:41.408Z,66.50
2022-08-03T00:40:15.402Z,66.69
2022-08-03T00:42:54.345Z,66.61
2022-08-03T00:45:29.599Z,66.70
2022-08-03T00:48:03.303Z,66.80
2022-08-03T00:50:41.013Z,66.74
2022-08-03T00:53:15.724Z,66.77
2022-08-03T00:55:51.767Z,66.73
2022-08-03T00:58:25.826Z,66.86
2022-08-03T01:00:59.374Z,66.93
2022-08-03T01:03:32.601Z,66.99
2022-08-03T01:06:36.072Z,67.08
2022-08-03T01:09:17.376Z,67.12
2022-08-03T01:11:59.888Z,67.17
2022-08-03T01:14:40.706Z,67.18
2022-08-03T01:17:21.594Z,67.18
2022-08-03T01:20:01.902Z,67.26
2022-08-03T01:23:10.418Z,67.25
2022-08-03T01:26:12.363Z,67.49
2022-08-03T01:29:11.867Z,67.36
2022-08-03T01:32:54.538Z,67.43
2022-08-03T01:34:56.944Z,67.42
2022-08-03T01:37:39.729Z,67.56
2022-08-03T01:40:18.287Z,67.42
2022-08-03T01:42:52.763Z,67.51
2022-08-03T01:45:33.961Z,67.65
2022-08-03T01:48:13.127Z,67.88
2022-08-03T01:50:51.392Z,67.77
2022-08-03T01:53:27.616Z,67.73
2022-08-03T01:56:04.767Z,67.66
2022-08-03T01:58:43.140Z,67.74
2022-08-03T02:01:20.573Z,67.94
2022-08-03T02:04:00.919Z,67.74
2022-08-03T02:07:02.232Z,67.82
2022-08-03T02:09:36.934Z,67.84
2022-08-03T02:12:16.363Z,67.80
2022-08-03T02:14:53.646Z,68.00
2022-08-03T02:17:39.618Z,68.13
2022-08-03T02:20:18.280Z,68.03
2022-08-03T02:22:54.207Z,67.85
2022-08-03T02:25:30.995Z,68.03
2022-08-03T02:28:13.394Z,67.93
2022-08-03T02:30:54.683Z,67.98
2022-08-03T02:33:33.256Z,67.99
2022-08-03T02:36:10.306Z,68.10
2022-08-03T02:38:51.549Z,68.20
2022-08-03T02:41:31.861Z,68.12
2022-08-03T02:44:15.070Z,68.34
2022-08-03T02:46:52.077Z,68.44
2022-08-03T02:49:41.462Z,68.49
2022-08-03T02:52:26.874Z,68.67
2022-08-03T02:55:04.922Z,68.59
2022-08-03T02:57:41.711Z,68.74
2022-08-03T03:00:27.659Z,68.77
2022-08-03T03:03:06.751Z,68.94
2022-08-03T03:05:52.072Z,68.86
2022-08-03T03:08:30.705Z,69.08
2022-08-03T03:11:05.531Z,68.94
2022-08-03T03:13:39.568Z,69.00
2022-08-03T03:16:15.979Z,69.07
2022-08-03T03:18:51.406Z,69.05
2022-08-03T03:21:25.427Z,69.04
2022-08-03T03:23:59.501Z,69.21
2022-08-03T03:26:33.061Z,69.18
2022-08-03T03:29:06.928Z,69.26
2022-08-03T03:31:40.853Z,69.32
2022-08-03T03:34:14.709Z,69.32
2022-08-03T03:36:48.477Z,69.39
2022-08-03T03:39:22.080Z,69.46
2022-08-03T03:41:55.815Z,69.34
2022-08-03T03:44:32.126Z,69.38
2022-08-03T03:47:06.553Z,69.34
2022-08-03T03:49:41.493Z,69.34
2022-08-03T03:52:15.187Z,69.40
2022-08-03T03:54:49.202Z,69.50
2022-08-03T03:57:22.707Z,69.58
2022-08-03T03:59:55.965Z,69.57
2022-08-03T04:02:29.474Z,69.56
2022-08-03T04:05:20.681Z,69.79
2022-08-03T04:08:18.092Z,69.70
2022-08-03T04:11:04.811Z,69.77
2022-08-03T04:13:41.685Z,69.56
2022-08-03T04:16:18.494Z,69.72
2022-08-03T04:19:02.630Z,69.58
2022-08-03T04:21:37.434Z,69.59
2022-08-03T04:24:14.371Z,69.51
2022-08-03T04:26:52.761Z,69.56
2022-08-03T04:29:27.605Z,69.41
2022-08-03T04:32:03.349Z,69.27
2022-08-03T04:34:37.488Z,69.23
2022-08-03T04:37:22.679Z,69.48
2022-08-03T04:39:58.935Z,69.42
2022-08-03T04:42:34.970Z,69.37
2022-08-03T04:45:09.829Z,69.21
2022-08-03T04:47:43.679Z,69.04
2022-08-03T04:50:21.326Z,68.85
2022-08-03T04:53:10.781Z,68.76
2022-08-03T04:55:44.683Z,68.68
2022-08-03T04:58:17.746Z,68.61
2022-08-03T05:00:52.478Z,68.55
2022-08-03T05:03:26.168Z,68.44
2022-08-03T05:06:01.902Z,68.64
2022-08-03T05:08:47.080Z,68.50
2022-08-03T05:11:20.464Z,68.45
2022-08-03T05:13:53.966Z,68.59
2022-08-03T05:16:27.445Z,68.50
2022-08-03T05:19:00.932Z,68.56
2022-08-03T05:21:52.006Z,68.35
2022-08-03T05:24:26.469Z,68.30
2022-08-03T05:26:59.715Z,68.31
2022-08-03T05:29:33.277Z,68.48
2022-08-03T05:32:16.478Z,68.71
2022-08-03T05:34:50.763Z,68.66
2022-08-03T05:37:24.259Z,68.21
2022-08-03T05:39:57.744Z,67.42
2022-08-03T05:42:31.428Z,66.99
2022-08-03T05:45:15.195Z,66.09
2022-08-03T05:47:51.357Z,65.63
2022-08-03T05:50:25.185Z,65.31
2022-08-03T05:53:00.516Z,65.38
2022-08-03T05:55:34.127Z,65.14
2022-08-03T05:58:07.855Z,64.88
2022-08-03T06:00:41.033Z,64.45
2022-08-03T06:03:14.081Z,64.25
2022-08-03T06:06:00.019Z,64.72
2022-08-03T06:08:33.996Z,65.09
2022-08-03T06:11:07.450Z,65.30
2022-08-03T06:13:41.459Z,65.72
2022-08-03T06:16:15.405Z,65.96
2022-08-03T06:18:49.556Z,66.41
2022-08-03T06:21:22.867Z,65.27
2022-08-03T06:23:55.928Z,64.24
2022-08-03T06:26:30.785Z,63.34
2022-08-03T06:29:04.399Z,62.60
2022-08-03T06:31:38.487Z,62.27
2022-08-03T06:34:34.350Z,61.94
2022-08-03T06:37:05.534Z,62.07
2022-08-03T06:39:38.793Z,61.58
2022-08-03T06:42:12.083Z,61.33
2022-08-03T06:44:45.668Z,61.00
2022-08-03T06:47:19.030Z,60.94
2022-08-03T06:50:17.275Z,60.97
2022-08-03T06:52:45.673Z,61.29
2022-08-03T06:55:19.207Z,61.38
2022-08-03T06:57:52.449Z,61.55
2022-08-03T07:00:26.640Z,61.63
2022-08-03T07:03:00.096Z,61.00
2022-08-03T07:05:35.449Z,60.65
2022-08-03T07:08:09.153Z,60.23
2022-08-03T07:10:42.541Z,59.42
2022-08-03T07:13:16.206Z,58.62
2022-08-03T07:15:55.571Z,58.61
2022-08-03T07:18:30.214Z,58.07
2022-08-03T07:21:04.000Z,56.42
2022-08-03T07:23:37.317Z,55.35
2022-08-03T07:26:10.777Z,53.91
2022-08-03T07:28:44.269Z,52.35
2022-08-03T07:31:17.665Z,51.44
2022-08-03T07:33:51.546Z,50.60
2022-08-03T07:36:25.056Z,50.14
2022-08-03T07:38:59.892Z,49.76
2022-08-03T07:41:33.489Z,49.85
2022-08-03T07:44:07.170Z,49.56
2022-08-03T07:46:40.710Z,49.60
2022-08-03T07:49:14.024Z,49.78
2022-08-03T07:52:07.431Z,49.40
2022-08-03T07:54:40.941Z,49.59
2022-08-03T07:57:14.539Z,49.83
2022-08-03T08:00:01.813Z,49.64
2022-08-03T08:02:45.414Z,49.35
2022-08-03T08:05:18.697Z,49.13
2022-08-03T08:07:52.218Z,49.03
2022-08-03T08:10:25.977Z,49.25
2022-08-03T08:12:59.853Z,49.03
2022-08-03T08:15:33.361Z,49.09
2022-08-03T08:18:07.021Z,49.13
2022-08-03T08:20:40.398Z,49.21
2022-08-03T08:23:40.866Z,48.91
2022-08-03T08:26:09.981Z,48.99
2022-08-03T08:28:43.898Z,49.61
2022-08-03T08:31:17.604Z,49.62
2022-08-03T08:34:06.676Z,50.05
2022-08-03T08:36:40.351Z,50.30
2022-08-03T08:39:13.720Z,50.57
2022-08-03T08:41:54.381Z,51.03
2022-08-03T08:44:28.134Z,50.96
2022-08-03T08:47:04.537Z,50.93
2022-08-03T08:49:49.368Z,50.55
2022-08-03T08:52:35.011Z,50.33
2022-08-03T08:55:11.022Z,50.15
2022-08-03T08:57:50.414Z,48.97
2022-08-03T09:00:23.974Z,49.18
2022-08-03T09:02:57.464Z,48.96
2022-08-03T09:05:54.992Z,48.87
2022-08-03T09:08:27.782Z,48.62
2022-08-03T09:11:03.946Z,48.23
2022-08-03T09:13:38.448Z,48.05
2022-08-03T09:16:16.582Z,47.95
2022-08-03T09:18:51.896Z,48.00
2022-08-03T09:21:32.255Z,47.74
2022-08-03T09:24:16.687Z,47.51
2022-08-03T09:26:59.651Z,47.59
2022-08-03T09:29:35.688Z,47.59
2022-08-03T09:32:09.558Z,46.99
2022-08-03T09:34:44.247Z,47.83
2022-08-03T09:37:20.214Z,47.10
2022-08-03T09:40:34.511Z,46.69
2022-08-03T09:43:08.616Z,46.37
2022-08-03T09:45:45.471Z,46.47
2022-08-03T09:48:32.414Z,46.12
2022-08-03T09:51:13.123Z,46.25
2022-08-03T09:54:05.778Z,46.14
2022-08-03T09:56:47.201Z,46.59
2022-08-03T09:59:28.889Z,46.79
2022-08-03T10:02:02.951Z,46.67
2022-08-03T10:04:36.432Z,45.83
2022-08-03T10:07:11.929Z,44.98
2022-08-03T10:09:57.665Z,43.00
2022-08-03T10:12:31.462Z,39.74
2022-08-03T10:15:05.968Z,38.32
2022-08-03T10:17:40.773Z,39.15
2022-08-03T10:20:15.614Z,38.08
2022-08-03T10:22:49.374Z,37.28
2022-08-03T10:25:23.650Z,37.11
2022-08-03T10:28:08.286Z,37.07
2022-08-03T10:30:46.037Z,37.46
2022-08-03T10:33:51.787Z,37.30
2022-08-03T10:36:17.836Z,37.52
2022-08-03T10:38:54.159Z,38.37
2022-08-03T10:41:34.125Z,38.90
2022-08-03T10:44:13.659Z,39.33
2022-08-03T10:46:48.904Z,39.35
2022-08-03T10:49:35.315Z,39.83
2022-08-03T10:52:13.794Z,40.25
2022-08-03T10:55:20.963Z,39.63
2022-08-03T10:57:58.850Z,39.41
2022-08-03T11:00:50.227Z,39.00
2022-08-03T11:03:23.571Z,39.52
2022-08-03T11:06:17.364Z,40.03
2022-08-03T11:08:52.484Z,40.51
2022-08-03T11:11:31.604Z,40.89
2022-08-03T11:14:08.415Z,40.93
2022-08-03T11:16:43.870Z,40.99
2022-08-03T11:19:20.399Z,40.68
2022-08-03T11:22:01.577Z,40.32
2022-08-03T11:25:04.871Z,40.38
2022-08-03T11:27:39.175Z,40.82
2022-08-03T11:30:27.490Z,41.17
2022-08-03T11:33:04.484Z,41.59
2022-08-03T11:35:58.577Z,41.09
2022-08-03T11:38:31.930Z,41.14
2022-08-03T11:41:05.548Z,40.97
2022-08-03T11:43:51.252Z,41.27
2022-08-03T11:46:28.562Z,41.43
2022-08-03T11:49:10.769Z,41.53
2022-08-03T11:51:44.870Z,41.97
2022-08-03T11:54:23.132Z,42.08
2022-08-03T11:56:56.397Z,42.22
2022-08-03T11:59:39.063Z,42.05
2022-08-03T12:02:13.652Z,42.35
2022-08-03T12:04:58.726Z,41.70
2022-08-03T12:08:03.515Z,41.62
2022-08-03T12:10:27.182Z,41.51
2022-08-03T12:14:28.888Z,41.70
2022-08-03T12:16:01.016Z,41.74
2022-08-03T12:18:34.522Z,42.40
2022-08-03T12:21:13.612Z,42.55
2022-08-03T12:23:47.163Z,42.60
2022-08-03T12:26:20.773Z,42.52
2022-08-03T12:28:54.248Z,41.24
2022-08-03T12:31:27.789Z,40.86
2022-08-03T12:34:04.422Z,40.97
2022-08-03T12:36:39.466Z,40.89
2022-08-03T12:39:13.693Z,41.14
2022-08-03T12:41:47.671Z,41.63
2022-08-03T12:44:31.508Z,42.12
2022-08-03T12:47:07.099Z,41.36
2022-08-03T12:49:50.642Z,41.36
2022-08-03T12:52:27.606Z,41.69
2022-08-03T12:55:02.458Z,41.84
2022-08-03T12:57:45.608Z,41.54
2022-08-03T13:00:28.859Z,41.17
2022-08-03T13:03:39.570Z,40.78
2022-08-03T13:06:02.628Z,40.59
2022-08-03T13:08:36.526Z,40.39
2022-08-03T13:11:53.521Z,40.52
2022-08-03T13:14:19.948Z,40.53
2022-08-03T13:16:53.929Z,40.52
2022-08-03T13:19:27.604Z,40.73
2022-08-03T13:22:04.250Z,40.85
2022-08-03T13:24:38.744Z,41.17
2022-08-03T13:28:11.075Z,41.31
2022-08-03T13:30:06.880Z,41.65
2022-08-03T13:32:40.495Z,42.03
2022-08-03T13:35:16.643Z,42.01
2022-08-03T13:37:50.573Z,42.27
2022-08-03T13:40:30.192Z,42.55
2022-08-03T13:43:04.053Z,42.68
2022-08-03T13:45:37.495Z,42.93
2022-08-03T13:48:11.135Z,43.16
2022-08-03T13:50:44.661Z,43.08
2022-08-03T13:53:18.621Z,43.29
2022-08-03T13:55:52.166Z,43.31
2022-08-03T13:58:26.148Z,43.55
2022-08-03T14:01:00.533Z,43.44
2022-08-03T14:03:34.095Z,43.00
2022-08-03T14:06:07.566Z,42.60
2022-08-03T14:08:41.127Z,42.17
2022-08-03T14:11:14.693Z,42.22
2022-08-03T14:13:48.283Z,41.68
2022-08-03T14:16:22.177Z,41.85
2022-08-03T14:18:56.224Z,42.20
2022-08-03T14:21:31.927Z,42.13
2022-08-03T14:24:05.545Z,42.12
2022-08-03T14:26:39.049Z,41.63
2022-08-03T14:29:12.412Z,41.92
2022-08-03T14:32:11.639Z,41.76
2022-08-03T14:34:39.657Z,41.73
2022-08-03T14:37:13.692Z,41.39
2022-08-03T14:40:03.673Z,41.02
2022-08-03T14:42:37.746Z,40.92
2022-08-03T14:45:20.062Z,40.87
2022-08-03T14:50:33.249Z,40.84
2022-08-03T14:50:51.456Z,40.50
2022-08-03T14:53:26.098Z,40.72
2022-08-03T14:55:59.629Z,40.79
2022-08-03T14:58:33.395Z,40.96
2022-08-03T15:02:03.119Z,40.79
2022-08-03T15:04:01.503Z,40.76
2022-08-03T15:06:35.181Z,40.85
2022-08-03T15:09:23.644Z,40.82
2022-08-03T15:11:57.581Z,40.82
2022-08-03T15:14:33.110Z,40.47
2022-08-03T15:17:12.430Z,40.83
2022-08-03T15:20:00.262Z,40.78
2022-08-03T15:22:42.895Z,40.76
2022-08-03T15:26:29.552Z,40.63
2022-08-03T15:28:10.302Z,40.56
2022-08-03T15:30:43.645Z,40.77
2022-08-03T15:33:17.087Z,40.66
2022-08-03T15:35:50.570Z,40.84
2022-08-03T15:38:26.163Z,41.06
2022-08-03T15:41:00.105Z,40.96
2022-08-03T15:43:33.816Z,41.15
2022-08-03T15:46:28.729Z,41.12
2022-08-03T15:49:03.212Z,41.06
2022-08-03T15:51:37.088Z,41.10
2022-08-03T15:54:10.930Z,41.20
2022-08-03T15:56:45.634Z,40.96
2022-08-03T15:59:19.994Z,41.28
2022-08-03T16:01:57.509Z,41.51
2022-08-03T16:04:30.619Z,41.39
2022-08-03T16:07:03.677Z,41.28
2022-08-03T16:09:43.026Z,41.63
2022-08-03T16:12:17.504Z,42.01
2022-08-03T16:14:53.367Z,41.93
2022-08-03T16:17:27.258Z,41.59
2022-08-03T16:20:00.672Z,41.64
2022-08-03T16:22:34.241Z,41.45
2022-08-03T16:25:13.981Z,41.62
2022-08-03T16:28:00.476Z,41.72
2022-08-03T16:30:42.461Z,41.48
2022-08-03T16:33:18.222Z,41.28
2022-08-03T16:35:51.662Z,41.55
2022-08-03T16:38:25.519Z,41.70
2022-08-03T16:40:59.290Z,42.19
2022-08-03T16:43:35.041Z,42.65
2022-08-03T16:46:08.404Z,42.81
2022-08-03T16:48:42.000Z,42.79
2022-08-03T16:51:15.407Z,42.91
2022-08-03T16:54:08.234Z,42.93
2022-08-03T16:56:42.164Z,42.92
2022-08-03T16:59:15.565Z,42.87
2022-08-03T17:01:49.803Z,43.09
2022-08-03T17:04:23.241Z,43.40
2022-08-03T17:06:57.499Z,43.43
2022-08-03T17:09:38.156Z,43.52
2022-08-03T17:12:12.744Z,43.71
2022-08-03T17:14:48.703Z,43.94
2022-08-03T17:17:29.740Z,43.75
2022-08-03T17:20:16.138Z,43.87
2022-08-03T17:22:57.750Z,43.84
2022-08-03T17:26:01.303Z,44.12
2022-08-03T17:28:48.217Z,43.98
2022-08-03T17:31:31.224Z,44.19
2022-08-03T17:34:07.012Z,44.12
2022-08-03T17:37:03.259Z,44.45
2022-08-03T17:39:59.076Z,44.44
2022-08-03T17:42:29.128Z,44.50
2022-08-03T17:45:15.595Z,44.72
2022-08-03T17:47:57.181Z,45.08
2022-08-03T17:50:43.433Z,45.02
2022-08-03T17:53:23.897Z,45.39
2022-08-03T17:56:38.832Z,45.47
2022-08-03T17:59:50.553Z,45.85
2022-08-03T18:02:47.781Z,46.11
2022-08-03T18:05:23.071Z,46.29
2022-08-03T18:08:19.480Z,46.33
2022-08-03T18:11:03.469Z,46.54
2022-08-03T18:13:58.658Z,46.74
2022-08-03T18:16:35.942Z,46.77
2022-08-03T18:19:13.704Z,47.14
2022-08-03T18:22:03.382Z,47.44
2022-08-03T18:24:38.439Z,47.56
2022-08-03T18:27:12.744Z,47.76
2022-08-03T18:29:46.318Z,47.89
2022-08-03T18:32:21.654Z,48.26
2022-08-03T18:35:00.470Z,48.43
2022-08-03T18:37:52.160Z,48.74
2022-08-03T18:40:28.321Z,49.02
2022-08-03T18:43:08.831Z,49.22
2022-08-03T18:45:55.811Z,49.40
2022-08-03T18:48:37.458Z,49.69
2022-08-03T18:51:28.644Z,49.76
2022-08-03T18:54:51.798Z,50.15
2022-08-03T18:57:05.238Z,50.25
2022-08-03T18:59:48.106Z,50.60
2022-08-03T19:02:33.210Z,50.77
2022-08-03T19:05:10.886Z,51.20
2022-08-03T19:07:58.442Z,51.38
2022-08-03T19:10:36.381Z,51.49
2022-08-03T19:13:15.096Z,51.74
2022-08-03T19:15:53.037Z,52.10
2022-08-03T19:18:28.616Z,52.39
2022-08-03T19:21:15.393Z,52.92
2022-08-03T19:24:01.665Z,53.08
2022-08-03T19:26:40.452Z,53.34
2022-08-03T19:29:19.305Z,53.48
2022-08-03T19:32:03.300Z,53.29
2022-08-03T19:34:42.579Z,53.11
2022-08-03T19:37:22.058Z,53.36
2022-08-03T19:39:57.033Z,53.57
2022-08-03T19:42:33.963Z,53.49
2022-08-03T19:45:14.633Z,53.68
2022-08-03T19:47:53.192Z,53.79
2022-08-03T19:50:27.477Z,53.94
2022-08-03T19:53:08.092Z,53.90
2022-08-03T19:55:48.842Z,53.93
2022-08-03T19:58:28.673Z,54.16
2022-08-03T20:01:21.294Z,53.91
2022-08-03T20:03:56.784Z,54.08
2022-08-03T20:06:31.427Z,54.04
2022-08-03T20:09:06.775Z,54.19
2022-08-03T20:11:45.039Z,54.26
2022-08-03T20:14:20.737Z,54.40
2022-08-03T20:17:01.284Z,54.70
2022-08-03T20:19:40.682Z,54.68
2022-08-03T20:22:16.768Z,54.61
2022-08-03T20:24:53.176Z,54.66
2022-08-03T20:27:30.304Z,54.70
2022-08-03T20:33:00.798Z,54.84
2022-08-03T20:35:35.327Z,54.97
2022-08-03T20:38:09.928Z,55.41
2022-08-03T20:40:44.648Z,55.98
2022-08-03T20:43:20.075Z,56.00
2022-08-03T20:46:00.680Z,56.01
2022-08-03T20:48:49.690Z,56.61
2022-08-03T20:51:48.971Z,56.85
2022-08-03T20:54:22.861Z,57.22
2022-08-03T20:57:09.394Z,57.51
2022-08-03T20:59:50.255Z,57.82
2022-08-03T21:02:30.322Z,58.09
2022-08-03T21:05:08.520Z,58.17
2022-08-03T21:08:04.920Z,58.42
2022-08-03T21:10:43.183Z,58.58
2022-08-03T21:13:07.089Z,54.71
2022-08-03T21:13:25.010Z,58.76
2022-08-03T21:16:04.866Z,58.50
2022-08-03T21:18:51.500Z,58.02
2022-08-03T21:21:27.855Z,57.93
2022-08-03T21:24:03.746Z,57.93
2022-08-03T21:26:40.661Z,57.95
2022-08-03T21:29:17.104Z,58.25
2022-08-03T21:31:51.767Z,58.11
2022-08-03T21:34:25.996Z,58.23
2022-08-03T21:36:59.844Z,57.96
2022-08-03T21:39:33.729Z,58.17
2022-08-03T21:42:07.697Z,58.36
2022-08-03T21:44:41.384Z,57.77
2022-08-03T21:47:16.487Z,57.41
2022-08-03T21:50:08.768Z,57.34
2022-08-03T21:52:47.341Z,56.96
2022-08-03T21:55:21.865Z,56.61
2022-08-03T21:58:01.666Z,56.35
2022-08-03T22:00:35.192Z,56.14
2022-08-03T22:03:15.179Z,55.98
2022-08-03T22:05:51.195Z,56.07
2022-08-03T22:08:24.794Z,56.03
2022-08-03T22:10:58.200Z,55.99
2022-08-03T22:13:43.769Z,55.98
2022-08-03T22:16:18.897Z,55.87
2022-08-03T22:18:52.279Z,55.65
2022-08-03T22:21:36.280Z,55.79
2022-08-03T22:24:11.103Z,55.61
2022-08-03T22:27:06.629Z,55.60
2022-08-03T22:29:41.593Z,55.52
2022-08-03T22:32:15.374Z,55.61
2022-08-03T22:34:50.865Z,55.64
2022-08-03T22:37:27.044Z,55.79
2022-08-03T22:40:11.523Z,55.95
2022-08-03T22:42:46.640Z,55.70
2022-08-03T22:46:07.301Z,55.94
2022-08-03T22:48:15.204Z,56.02
2022-08-03T22:50:49.756Z,56.00
2022-08-03T22:53:24.050Z,56.02
2022-08-03T22:55:58.317Z,56.22
2022-08-03T22:58:31.614Z,56.21
2022-08-03T23:01:08.251Z,56.40
2022-08-03T23:04:01.040Z,56.40
2022-08-03T23:06:38.279Z,56.52
2022-08-03T23:09:15.254Z,56.66
2022-08-03T23:11:49.947Z,56.48
2022-08-03T23:14:24.596Z,56.58
2022-08-03T23:17:01.451Z,56.71
2022-08-03T23:19:41.648Z,56.69
2022-08-03T23:22:30.242Z,56.71
2022-08-03T23:25:05.181Z,56.87
2022-08-03T23:27:43.261Z,56.88
2022-08-03T23:30:17.545Z,56.95
2022-08-03T23:32:54.650Z,57.02
2022-08-03T23:36:29.295Z,56.87
2022-08-03T23:38:41.336Z,56.81
2022-08-03T23:41:16.549Z,57.04
2022-08-03T23:43:54.162Z,57.11
2022-08-03T23:46:30.656Z,56.92
2022-08-03T23:49:04.037Z,57.23
2022-08-03T23:51:44.585Z,57.33
2022-08-03T23:54:27.058Z,57.44
2022-08-03T23:57:10.686Z,57.63
2022-08-03T23:59:54.999Z,57.68
